createdAt,value
2019-03-19T00:00:02.539Z,47.6
2019-03-19T00:05:02.505Z,47.1
2019-03-19T00:10:01.846Z,47.6
2019-03-19T00:15:01.807Z,47.6
2019-03-19T00:20:02.352Z,47.6
2019-03-19T00:25:02.254Z,47.6
2019-03-19T00:30:02.257Z,47.6
2019-03-19T00:35:02.162Z,47.6
2019-03-19T00:40:01.650Z,47.6
2019-03-19T00:45:01.537Z,47.1
2019-03-19T00:50:02.107Z,47.1
2019-03-19T00:55:02.020Z,47.1
2019-03-19T01:00:02.502Z,47.1
2019-03-19T01:05:02.427Z,47.1
2019-03-19T01:10:02.355Z,47.1
2019-03-19T01:15:02.301Z,47.1
2019-03-19T01:20:01.841Z,46.5
2019-03-19T01:25:01.796Z,46.5
2019-03-19T01:30:01.751Z,47.1
2019-03-19T01:35:01.706Z,47.1
2019-03-19T01:40:02.149Z,46.5
2019-03-19T01:45:01.997Z,47.1
2019-03-19T01:50:01.989Z,47.1
2019-03-19T01:55:01.994Z,47.6
2019-03-19T02:00:01.825Z,47.1
2019-03-19T02:05:01.762Z,47.6
2019-03-19T02:10:02.163Z,47.6
2019-03-19T02:15:02.135Z,47.1
2019-03-19T02:20:01.903Z,47.1
2019-03-19T02:25:01.609Z,47.1
2019-03-19T02:30:01.861Z,47.1
2019-03-19T02:35:01.860Z,47.1
2019-03-19T02:40:01.818Z,47.1
2019-03-19T02:45:01.569Z,47.1
2019-03-19T02:50:02.405Z,47.6
2019-03-19T02:55:02.368Z,47.1
2019-03-19T03:00:02.005Z,47.6
2019-03-19T03:05:02.043Z,47.6
2019-03-19T03:10:02.511Z,47.1
2019-03-19T03:15:02.220Z,46.5
2019-03-19T03:20:01.636Z,46.5
2019-03-19T03:25:01.772Z,46.5
2019-03-19T03:30:02.195Z,47.1
2019-03-19T03:35:02.202Z,47.6
2019-03-19T03:40:02.167Z,47.1
2019-03-19T03:45:02.169Z,47.1
2019-03-19T03:50:02.128Z,47.1
2019-03-19T03:55:02.021Z,47.6
2019-03-19T04:00:02.074Z,46.5
2019-03-19T04:05:01.953Z,47.1
2019-03-19T04:10:02.377Z,47.1
2019-03-19T04:15:02.412Z,47.6
2019-03-19T04:20:01.961Z,47.1
2019-03-19T04:25:01.883Z,47.1
2019-03-19T04:30:02.521Z,47.1
2019-03-19T04:35:02.361Z,47.6
2019-03-19T04:40:01.871Z,47.6
2019-03-19T04:45:01.797Z,47.1
2019-03-19T04:50:02.198Z,47.6
2019-03-19T04:55:02.097Z,47.1
2019-03-19T05:00:02.061Z,47.6
2019-03-19T05:05:02.044Z,47.6
2019-03-19T05:10:02.103Z,47.6
2019-03-19T05:15:02.006Z,47.6
2019-03-19T05:20:02.019Z,47.1
2019-03-19T05:25:02.002Z,47.6
2019-03-19T05:30:02.465Z,47.1
2019-03-19T05:35:02.388Z,47.1
2019-03-19T05:40:01.977Z,47.6
2019-03-19T05:45:01.749Z,47.6
2019-03-19T05:50:02.232Z,48.2
2019-03-19T05:55:02.174Z,47.6
2019-03-19T06:00:02.169Z,47.6
2019-03-19T06:05:02.058Z,47.6
2019-03-19T06:10:02.012Z,48.2
2019-03-19T06:15:02.092Z,47.6
2019-03-19T06:20:01.907Z,47.6
2019-03-19T06:25:01.813Z,48.2
2019-03-19T06:30:01.881Z,47.6
2019-03-19T06:35:01.888Z,47.6
2019-03-19T06:40:01.813Z,48.2
2019-03-19T06:45:01.795Z,47.6
2019-03-19T06:50:02.316Z,47.6
2019-03-19T06:55:02.357Z,48.2
2019-03-19T07:00:02.299Z,48.2
2019-03-19T07:05:02.162Z,47.6
2019-03-19T07:10:01.647Z,47.6
2019-03-19T07:15:02.436Z,47.6
2019-03-19T07:20:02.162Z,47.6
2019-03-19T07:25:01.985Z,48.2
2019-03-19T07:30:02.265Z,47.6
2019-03-19T07:35:02.195Z,47.6
2019-03-19T07:40:02.316Z,48.2
2019-03-19T07:45:02.167Z,48.7
2019-03-19T07:50:02.113Z,47.6
2019-03-19T07:55:02.029Z,47.6
2019-03-19T08:00:01.561Z,48.2
2019-03-19T08:05:02.495Z,48.2
2019-03-19T08:10:01.882Z,47.6
2019-03-19T08:15:01.944Z,48.2
2019-03-19T08:20:02.221Z,48.2
2019-03-19T08:25:02.220Z,48.7
2019-03-19T08:30:01.862Z,48.2
2019-03-19T08:35:01.711Z,48.7
2019-03-19T08:40:01.696Z,48.7
2019-03-19T08:45:01.816Z,48.7
2019-03-19T08:50:01.836Z,48.7
2019-03-19T08:55:01.746Z,48.7
2019-03-19T09:00:02.251Z,48.7
2019-03-19T09:05:03.130Z,48.7
2019-03-19T09:10:01.714Z,48.7
2019-03-19T09:15:01.671Z,49.2
2019-03-19T09:20:01.866Z,49.8
2019-03-19T09:25:01.781Z,49.8
2019-03-19T09:30:01.806Z,48.7
2019-03-19T09:35:01.882Z,48.7
2019-03-19T09:40:02.253Z,49.2
2019-03-19T09:45:02.167Z,49.8
2019-03-19T09:50:02.514Z,48.7
2019-03-19T09:55:02.177Z,49.8
2019-03-19T10:00:01.692Z,48.7
2019-03-19T10:05:01.648Z,49.2
2019-03-19T10:10:02.376Z,49.8
2019-03-19T10:15:02.329Z,49.8
2019-03-19T10:20:01.882Z,50.3
2019-03-19T10:25:01.944Z,49.8
2019-03-19T10:30:02.426Z,50.3
2019-03-19T10:35:02.437Z,49.8
2019-03-19T10:40:01.884Z,50.8
2019-03-19T10:45:01.883Z,49.8
2019-03-19T10:50:01.616Z,50.8
2019-03-19T10:55:02.526Z,50.3
2019-03-19T11:00:02.056Z,50.8
2019-03-19T11:05:02.082Z,50.3
2019-03-19T11:10:02.219Z,50.3
2019-03-19T11:15:02.143Z,49.8
2019-03-19T11:20:01.660Z,50.8
2019-03-19T11:25:01.612Z,50.8
2019-03-19T11:30:01.622Z,50.8
2019-03-19T11:35:01.544Z,50.8
2019-03-19T11:40:02.030Z,50.8
2019-03-19T11:45:02.011Z,50.8
2019-03-19T11:50:02.476Z,50.8
2019-03-19T11:55:02.425Z,50.8
2019-03-19T12:00:10.640Z,50.3
2019-03-19T12:05:01.754Z,50.8
2019-03-19T12:10:02.257Z,50.3
2019-03-19T12:15:02.283Z,50.3
2019-03-19T12:20:02.284Z,49.8
2019-03-19T12:25:01.930Z,50.8
2019-03-19T12:30:01.942Z,49.8
2019-03-19T12:35:02.268Z,49.8
2019-03-19T12:40:02.424Z,49.8
2019-03-19T12:45:01.500Z,50.8
2019-03-19T12:50:02.097Z,51.4
2019-03-19T12:55:02.278Z,50.8
2019-03-19T13:00:02.247Z,51.4
2019-03-19T13:05:02.158Z,51.4
2019-03-19T13:10:01.693Z,50.8
2019-03-19T13:15:01.729Z,50.8
2019-03-19T13:20:02.491Z,50.8
2019-03-19T13:25:01.498Z,50.8
2019-03-19T13:30:01.599Z,50.3
2019-03-19T13:35:01.600Z,50.8
2019-03-19T13:40:01.668Z,51.4
2019-03-19T13:45:01.645Z,51.4
2019-03-19T13:50:02.033Z,51.4
2019-03-19T13:55:01.992Z,52.5
2019-03-19T14:00:02.573Z,53
2019-03-19T14:05:01.862Z,51.9
2019-03-19T14:10:02.442Z,51.9
2019-03-19T14:15:02.255Z,51.9
2019-03-19T14:20:02.367Z,53
2019-03-19T14:25:02.299Z,54.1
2019-03-19T14:30:02.470Z,55.7
2019-03-19T14:35:02.496Z,54.1
2019-03-19T14:40:02.568Z,54.1
2019-03-19T14:45:02.195Z,54.1
2019-03-19T14:50:01.826Z,54.6
2019-03-19T14:55:01.701Z,55.1
2019-03-19T15:00:01.958Z,55.7
2019-03-19T15:05:01.929Z,56.2
2019-03-19T15:10:02.472Z,56.8
2019-03-19T15:15:01.694Z,55.1
2019-03-19T15:20:02.530Z,54.1
2019-03-19T15:25:02.266Z,53
2019-03-19T15:30:02.355Z,53
2019-03-19T15:35:02.190Z,51.9
2019-03-19T15:40:01.667Z,51.9
2019-03-19T15:45:01.677Z,51.9
2019-03-19T15:50:01.734Z,51.9
2019-03-19T15:55:01.719Z,51.9
2019-03-19T16:00:02.194Z,52.5
2019-03-19T16:05:02.318Z,51.9
2019-03-19T16:10:02.059Z,51.9
2019-03-19T16:15:01.937Z,51.9
2019-03-19T16:20:01.549Z,51.9
2019-03-19T16:25:01.602Z,51.9
2019-03-19T16:30:02.507Z,51.9
2019-03-19T16:35:02.473Z,51.9
2019-03-19T16:40:01.901Z,51.9
2019-03-19T16:45:01.880Z,51.4
2019-03-19T16:50:02.415Z,51.9
2019-03-19T16:55:02.335Z,51.9
2019-03-19T17:00:01.927Z,51.9
2019-03-19T17:05:02.001Z,51.9
2019-03-19T17:10:01.864Z,53
2019-03-19T17:15:01.824Z,53
2019-03-19T17:20:01.934Z,53
2019-03-19T17:25:01.743Z,51.9
2019-03-19T17:30:01.595Z,52.5
2019-03-19T17:35:01.575Z,51.9
2019-03-19T17:40:02.263Z,51.9
2019-03-19T17:45:02.121Z,51.9
2019-03-19T17:50:01.755Z,52.5
2019-03-19T17:55:01.716Z,51.9
2019-03-19T18:00:01.931Z,51.9
2019-03-19T18:05:01.804Z,51.9
2019-03-19T18:10:01.701Z,51.9
2019-03-19T18:15:01.679Z,51.9
2019-03-19T18:20:01.859Z,51.4
2019-03-19T18:25:01.779Z,51.9
2019-03-19T18:30:02.037Z,51.4
2019-03-19T18:35:02.123Z,50.8
2019-03-19T18:40:02.526Z,51.9
2019-03-19T18:45:02.489Z,50.8
2019-03-19T18:50:01.583Z,51.4
2019-03-19T18:55:01.518Z,51.4
2019-03-19T19:00:01.594Z,50.8
2019-03-19T19:05:02.501Z,50.8
2019-03-19T19:10:02.076Z,50.8
2019-03-19T19:15:01.786Z,50.8
2019-03-19T19:20:01.940Z,50.8
2019-03-19T19:25:01.828Z,50.3
2019-03-19T19:30:01.974Z,50.8
2019-03-19T19:35:01.864Z,50.8
2019-03-19T19:40:02.342Z,50.8
2019-03-19T19:45:02.331Z,50.3
2019-03-19T19:50:02.243Z,49.8
2019-03-19T19:55:02.186Z,50.8
2019-03-19T20:00:02.466Z,50.3
2019-03-19T20:05:03.051Z,50.8
2019-03-19T20:10:02.443Z,50.3
2019-03-19T20:15:02.363Z,49.8
2019-03-19T20:20:02.025Z,50.8
2019-03-19T20:25:01.991Z,49.8
2019-03-19T20:30:02.024Z,49.8
2019-03-19T20:35:01.936Z,49.8
2019-03-19T20:40:02.517Z,50.3
2019-03-19T20:45:02.374Z,49.8
2019-03-19T20:50:02.056Z,50.3
2019-03-19T20:55:01.991Z,49.8
2019-03-19T21:00:02.514Z,49.8
2019-03-19T21:05:02.441Z,49.8
2019-03-19T21:10:01.856Z,49.8
2019-03-19T21:15:01.942Z,50.3
2019-03-19T21:20:01.862Z,49.8
2019-03-19T21:25:01.796Z,49.8
2019-03-19T21:30:01.861Z,49.8
2019-03-19T21:35:01.917Z,49.8
2019-03-19T21:40:01.859Z,49.2
2019-03-19T21:45:01.675Z,49.8
2019-03-19T21:50:01.835Z,48.7
2019-03-19T21:55:01.811Z,49.2
2019-03-19T22:00:01.691Z,48.7
2019-03-19T22:05:01.623Z,48.7
2019-03-19T22:10:01.600Z,48.7
2019-03-19T22:15:01.550Z,49.2
2019-03-19T22:20:01.803Z,48.7
2019-03-19T22:25:01.759Z,48.7
2019-03-19T22:30:02.377Z,48.7
2019-03-19T22:35:02.212Z,48.7
2019-03-19T22:40:01.574Z,48.7
2019-03-19T22:45:01.554Z,48.7
2019-03-19T22:50:02.457Z,48.7
2019-03-19T22:55:02.409Z,48.7
2019-03-19T23:00:01.868Z,49.2
2019-03-19T23:05:02.308Z,48.7
2019-03-19T23:10:02.266Z,48.7
2019-03-19T23:15:02.149Z,48.7
2019-03-19T23:20:02.298Z,48.7
2019-03-19T23:25:02.140Z,48.7
2019-03-19T23:30:02.034Z,48.7
2019-03-19T23:35:01.960Z,48.7
2019-03-19T23:40:02.530Z,48.7
2019-03-19T23:45:02.456Z,48.7
2019-03-19T23:50:02.142Z,48.7
2019-03-19T23:55:02.171Z,48.2
